Time;durP1;ratioP1;P1;durP2;ratioP2;P2;SDS_P1;SDS_P2;PMS_P1;PMS_P2;Temp;Humidity;BMP_temperature;BMP_pressure;BME280_temperature;BME280_humidity;BME280_pressure;Samples;Min_cycle;Max_cycle;Signal;HPM_P1;HPM_P2
2022/12/10 00:01:46;;;;;;;16.73;9.87;;;;;;;9.78;68.04;94297.06;5049114;28;20282;-64
2022/12/10 00:04:12;;;;;;;19.50;10.53;;;;;;;9.67;68.56;94264.91;5052123;28;20244;-66
2022/12/10 00:06:39;;;;;;;20.10;10.17;;;;;;;9.94;67.88;94286.56;5048002;28;20231;-66
2022/12/10 00:09:07;;;;;;;18.93;11.10;;;;;;;10.04;67.46;94278.50;5045167;28;20193;-65
2022/12/10 00:11:33;;;;;;;18.73;10.70;;;;;;;10.08;67.07;94288.53;5048970;28;20336;-66
2022/12/10 00:13:59;;;;;;;22.87;11.30;;;;;;;10.10;66.87;94277.84;5050448;28;20264;-65
2022/12/10 00:16:26;;;;;;;19.17;11.63;;;;;;;10.00;67.14;94280.66;5061522;28;20228;-66
2022/12/10 00:18:53;;;;;;;14.43;10.23;;;;;;;10.18;66.76;94266.50;5050524;28;20404;-66
2022/12/10 00:21:21;;;;;;;18.83;10.63;;;;;;;10.08;67.01;94261.44;5050864;28;20251;-66
2022/12/10 00:23:47;;;;;;;17.43;11.03;;;;;;;9.82;68.09;94259.00;5049532;28;20186;-66
2022/12/10 00:26:17;;;;;;;17.93;10.27;;;;;;;9.99;67.45;94265.88;5050227;28;20224;-66
2022/12/10 00:28:44;;;;;;;25.80;10.97;;;;;;;9.71;68.53;94254.91;5036732;28;20225;-66
2022/12/10 00:31:13;;;;;;;20.97;10.67;;;;;;;9.90;67.82;94251.13;5035575;28;20214;-66
2022/12/10 00:33:39;;;;;;;18.67;10.30;;;;;;;10.10;67.02;94262.91;5028394;28;20229;-66
2022/12/10 00:36:20;;;;;;;18.67;10.23;;;;;;;10.16;66.94;94250.91;5029318;28;20198;-66
2022/12/10 00:38:46;;;;;;;19.87;9.50;;;;;;;10.11;66.78;94280.31;5027099;28;20179;-66
2022/12/10 00:41:13;;;;;;;13.77;9.50;;;;;;;9.62;68.81;94282.97;5023584;28;20365;-66
2022/12/10 00:43:39;;;;;;;23.17;9.60;;;;;;;9.86;68.11;94265.56;5022727;28;20225;-66
2022/12/10 00:46:05;;;;;;;18.10;9.47;;;;;;;9.80;68.03;94250.47;5025275;28;20313;-65
2022/12/10 00:48:31;;;;;;;17.20;9.40;;;;;;;9.50;68.84;94271.16;5011894;28;20317;-65
2022/12/10 00:50:56;;;;;;;18.83;9.70;;;;;;;9.67;68.59;94270.16;5025941;28;20197;-65
2022/12/10 00:53:23;;;;;;;19.27;9.83;;;;;;;9.77;68.42;94254.25;5018846;28;20229;-64
2022/12/10 00:55:48;;;;;;;18.57;8.90;;;;;;;9.79;68.20;94285.59;5028085;28;20219;-64
2022/12/10 00:58:14;;;;;;;18.87;9.17;;;;;;;9.76;68.08;94263.13;5034331;28;20228;-64
2022/12/10 01:00:39;;;;;;;16.93;8.57;;;;;;;9.90;67.38;94259.00;5030348;28;20300;-65
2022/12/10 01:03:04;;;;;;;15.70;8.43;;;;;;;9.47;68.90;94300.34;5030508;28;20196;-64
2022/12/10 01:05:30;;;;;;;19.73;10.03;;;;;;;9.38;69.93;94280.31;5013063;28;20262;-65
2022/12/10 01:07:55;;;;;;;14.67;9.40;;;;;;;9.65;69.07;94251.16;5053114;28;20217;-64
2022/12/10 01:10:21;;;;;;;15.73;8.57;;;;;;;9.69;68.63;94270.81;5048794;28;20244;-65
2022/12/10 01:12:46;;;;;;;16.17;9.60;;;;;;;9.66;69.02;94267.72;5035061;28;20240;-65
2022/12/10 01:15:12;;;;;;;19.37;9.50;;;;;;;9.83;68.28;94268.50;5052357;28;20185;-65
2022/12/10 01:17:37;;;;;;;17.77;9.80;;;;;;;9.98;67.64;94248.47;5033745;28;20174;-64
2022/12/10 01:20:03;;;;;;;18.63;8.70;;;;;;;9.88;67.98;94267.03;5028633;28;20292;-64
2022/12/10 01:22:28;;;;;;;12.90;9.30;;;;;;;9.98;67.48;94255.53;5049138;28;20218;-65
2022/12/10 01:24:54;;;;;;;19.73;9.07;;;;;;;10.03;67.53;94248.81;5027338;28;20227;-65
2022/12/10 01:27:19;;;;;;;18.00;9.63;;;;;;;9.97;67.64;94270.50;5031430;28;20218;-64
2022/12/10 01:29:45;;;;;;;23.27;10.40;;;;;;;9.71;68.85;94253.09;5033825;28;20197;-65
2022/12/10 01:32:10;;;;;;;24.20;10.33;;;;;;;9.87;68.28;94248.84;5041032;28;20218;-64
2022/12/10 01:34:35;;;;;;;16.53;9.07;;;;;;;10.03;67.69;94211.22;5041451;28;20221;-65
2022/12/10 01:37:01;;;;;;;19.07;9.43;;;;;;;10.10;67.44;94236.66;5032841;28;20329;-64
2022/12/10 01:39:26;;;;;;;18.03;9.23;;;;;;;10.16;67.36;94251.72;5037338;28;20224;-65
2022/12/10 01:41:58;;;;;;;15.57;8.73;;;;;;;10.12;67.29;94228.59;5043120;28;20189;-65
2022/12/10 01:44:23;;;;;;;13.73;8.40;;;;;;;10.02;67.54;94252.41;5048261;28;20224;-64
2022/12/10 01:46:51;;;;;;;16.17;9.30;;;;;;;10.04;67.99;94241.75;5043318;28;20218;-65
2022/12/10 01:49:24;;;;;;;16.17;9.27;;;;;;;10.07;67.71;94244.84;5037565;28;20234;-64
2022/12/10 01:51:52;;;;;;;15.90;8.87;;;;;;;10.15;67.51;94242.19;5045887;28;20309;-65
2022/12/10 01:54:31;;;;;;;14.23;9.30;;;;;;;10.16;67.42;94246.47;5041177;28;20240;-65
2022/12/10 01:57:07;;;;;;;14.63;7.90;;;;;;;10.18;67.53;94235.78;5036028;28;20178;-65
2022/12/10 01:59:35;;;;;;;14.87;8.80;;;;;;;10.18;67.43;94237.59;5044839;28;20298;-66
2022/12/10 02:02:18;;;;;;;14.53;8.33;;;;;;;10.28;67.13;94240.88;5046856;28;20214;-66
2022/12/10 02:05:20;;;;;;;12.33;7.33;;;;;;;10.34;67.13;94248.09;5036626;28;20225;-66
2022/12/10 02:08:01;;;;;;;14.70;8.00;;;;;;;10.20;67.15;94246.13;5037183;28;20972;-66
2022/12/10 02:10:41;;;;;;;15.03;7.20;;;;;;;10.26;67.08;94229.69;5038757;28;20232;-66
2022/12/10 02:13:24;;;;;;;11.63;7.70;;;;;;;10.31;67.21;94245.81;5046984;28;20291;-66
2022/12/10 02:16:19;;;;;;;15.60;7.80;;;;;;;10.35;67.29;94276.84;5032181;28;20240;-66
2022/12/10 02:19:00;;;;;;;16.60;10.33;;;;;;;9.95;69.15;94259.31;5037172;28;20218;-66
2022/12/10 02:21:30;;;;;;;17.03;8.43;;;;;;;10.03;68.56;94225.16;5043489;28;20221;-64
2022/12/10 02:24:01;;;;;;;14.27;9.23;;;;;;;10.15;68.34;94246.63;5049969;28;20217;-65
2022/12/10 02:26:44;;;;;;;14.63;7.80;;;;;;;9.92;69.03;94233.41;5024577;28;20276;-65
2022/12/10 02:29:19;;;;;;;14.20;8.23;;;;;;;10.11;68.37;94222.53;5019836;28;20305;-65
2022/12/10 02:31:55;;;;;;;12.00;8.53;;;;;;;10.09;68.45;94223.66;5035466;28;20259;-65
2022/12/10 02:34:23;;;;;;;16.30;7.50;;;;;;;10.01;69.00;94216.63;5025651;28;20635;-65
2022/12/10 02:36:52;;;;;;;14.03;8.23;;;;;;;10.20;68.16;94211.97;5037647;28;20217;-64
2022/12/10 02:39:27;;;;;;;11.73;7.50;;;;;;;10.02;69.25;94225.31;5014508;28;20214;-64
2022/12/10 02:41:54;;;;;;;20.03;7.73;;;;;;;10.09;68.72;94213.97;5017568;28;20182;-65
2022/12/10 02:44:23;;;;;;;11.67;7.47;;;;;;;10.22;68.89;94210.00;5014464;28;20223;-65
2022/12/10 02:46:52;;;;;;;12.17;7.40;;;;;;;10.29;68.43;94210.97;5036704;28;20226;-66
2022/12/10 02:49:18;;;;;;;8.73;7.50;;;;;;;10.20;68.80;94204.09;5032839;28;20256;-66
2022/12/10 02:51:43;;;;;;;15.10;7.93;;;;;;;10.16;68.68;94196.56;5046304;28;20504;-66
2022/12/10 02:54:33;;;;;;;11.20;7.10;;;;;;;10.23;69.01;94198.50;5038646;28;20209;-65
2022/12/10 02:57:05;;;;;;;10.07;7.03;;;;;;;10.23;68.68;94203.75;5025555;28;20213;-65
2022/12/10 03:00:00;;;;;;;14.30;7.70;;;;;;;10.15;69.06;94213.28;5021481;28;20195;-66
2022/12/10 03:02:58;;;;;;;9.67;6.73;;;;;;;10.34;68.44;94216.56;5008560;28;20246;-65
2022/12/10 03:05:32;;;;;;;15.03;7.60;;;;;;;10.40;68.47;94205.38;4990587;28;20273;-65
2022/12/10 03:08:00;;;;;;;11.73;7.10;;;;;;;10.38;68.44;94200.28;4987447;28;20234;-66
2022/12/10 03:10:42;;;;;;;10.33;6.83;;;;;;;10.31;68.62;94227.41;4984574;28;20234;-66
2022/12/10 03:13:11;;;;;;;9.30;6.90;;;;;;;10.24;69.04;94205.41;4981847;28;20255;-66
2022/12/10 03:15:41;;;;;;;12.37;6.73;;;;;;;10.35;68.95;94218.22;4986450;28;20220;-66
2022/12/10 03:18:08;;;;;;;12.40;6.83;;;;;;;10.46;68.84;94220.47;4986887;28;20183;-66
2022/12/10 03:20:38;;;;;;;19.03;7.50;;;;;;;10.56;68.00;94204.50;4985236;28;20203;-66
2022/12/10 03:23:09;;;;;;;12.40;6.77;;;;;;;10.37;68.79;94190.78;4983536;28;20230;-66
2022/12/10 03:25:35;;;;;;;12.73;6.50;;;;;;;10.26;69.25;94198.16;4990117;28;20242;-66
2022/12/10 03:28:01;;;;;;;10.60;6.73;;;;;;;10.30;69.23;94205.56;4983643;28;20258;-66
2022/12/10 03:30:26;;;;;;;12.57;6.60;;;;;;;10.39;68.68;94222.13;4986402;28;20405;-66
2022/12/10 03:32:53;;;;;;;10.77;7.70;;;;;;;10.18;69.39;94213.94;4989844;28;20202;-66
2022/12/10 03:35:23;;;;;;;11.77;6.40;;;;;;;10.33;68.93;94193.91;4990411;28;20475;-66
2022/12/10 03:37:49;;;;;;;10.43;6.17;;;;;;;10.47;68.55;94189.75;4984270;28;20266;-66
2022/12/10 03:40:17;;;;;;;11.37;6.67;;;;;;;10.55;68.53;94202.84;5014976;28;20222;-66
2022/12/10 03:42:43;;;;;;;10.30;6.77;;;;;;;10.45;68.59;94194.34;5033500;28;20246;-66
2022/12/10 03:45:09;;;;;;;14.30;6.17;;;;;;;10.50;68.39;94179.69;5035577;28;20225;-66
2022/12/10 03:47:35;;;;;;;8.97;6.03;;;;;;;10.58;68.32;94190.19;5019442;28;20182;-66
2022/12/10 03:50:00;;;;;;;14.83;6.63;;;;;;;10.64;68.21;94191.31;5018987;28;20245;-66
2022/12/10 03:52:25;;;;;;;12.40;5.63;;;;;;;10.62;68.15;94179.31;5031283;28;20218;-66
2022/12/10 03:54:51;;;;;;;9.60;6.30;;;;;;;10.68;67.99;94189.97;5027800;28;20223;-66
2022/12/10 03:57:16;;;;;;;12.07;6.03;;;;;;;10.62;68.01;94185.41;5027678;28;20178;-66
2022/12/10 03:59:42;;;;;;;10.27;6.43;;;;;;;10.56;68.35;94173.75;5040272;28;20182;-67
2022/12/10 04:02:07;;;;;;;11.33;5.93;;;;;;;10.63;68.56;94173.06;5045643;28;20225;-66
2022/12/10 04:04:33;;;;;;;10.23;5.53;;;;;;;10.71;68.54;94170.38;5039598;28;20222;-66
2022/12/10 04:06:58;;;;;;;10.80;5.90;;;;;;;10.64;68.86;94182.59;5041468;28;20300;-67
2022/12/10 04:09:24;;;;;;;9.80;6.50;;;;;;;10.84;67.75;94175.91;5050103;28;20229;-67
2022/12/10 04:11:49;;;;;;;10.30;6.70;;;;;;;10.50;68.68;94166.53;5036491;28;20222;-66
2022/12/10 04:17:00;;;;;;;8.83;6.27;;;;;;;10.67;68.84;94174.38;5040866;28;20278;-66
2022/12/10 04:19:25;;;;;;;11.53;6.40;;;;;;;10.60;68.76;94163.72;5045480;28;20249;-66
2022/12/10 04:27:40;;;;;;;10.87;6.90;;;;;;;10.68;69.64;94163.66;4992147;28;20314;-66
2022/12/10 04:30:10;;;;;;;10.23;6.53;;;;;;;10.59;69.99;94178.66;4985522;28;20200;-66
2022/12/10 04:32:36;;;;;;;11.10;6.50;;;;;;;10.58;70.39;94192.81;4969899;28;20187;-65
2022/12/10 04:35:01;;;;;;;11.93;7.00;;;;;;;10.48;71.15;94192.22;4992443;28;20223;-65
2022/12/10 04:37:27;;;;;;;11.43;7.60;;;;;;;10.51;71.17;94188.41;4977013;28;20216;-65
2022/12/10 04:39:53;;;;;;;11.67;7.07;;;;;;;10.66;71.61;94177.97;4978809;28;20257;-66
2022/12/10 04:42:21;;;;;;;14.03;7.33;;;;;;;10.65;72.08;94186.88;4979015;28;20223;-65
2022/12/10 04:44:46;;;;;;;10.87;6.87;;;;;;;10.50;72.58;94205.16;4971981;28;20219;-65
2022/12/10 04:47:12;;;;;;;12.07;6.63;;;;;;;10.51;72.64;94197.13;4975773;28;20227;-66
2022/12/10 04:49:38;;;;;;;11.50;7.40;;;;;;;10.50;72.39;94192.03;4975317;28;20228;-65
2022/12/10 04:52:05;;;;;;;9.27;6.33;;;;;;;10.32;73.49;94216.75;4975182;28;20300;-65
2022/12/10 04:54:30;;;;;;;11.27;6.73;;;;;;;10.14;74.36;94201.16;4975224;28;20325;-66
2022/12/10 04:56:56;;;;;;;11.63;7.80;;;;;;;10.37;74.02;94185.53;5044429;28;20186;-66
2022/12/10 04:59:22;;;;;;;12.33;7.73;;;;;;;10.53;74.01;94182.00;5039014;28;20213;-66
2022/12/10 05:01:47;;;;;;;13.60;7.80;;;;;;;10.28;74.32;94209.34;5057787;28;20356;-65
2022/12/10 05:04:15;;;;;;;12.27;6.70;;;;;;;10.28;74.43;94199.66;5050383;28;20225;-66
2022/12/10 05:06:41;;;;;;;12.23;7.53;;;;;;;10.41;74.13;94196.50;5037611;28;20244;-65
2022/12/10 05:09:07;;;;;;;12.03;7.17;;;;;;;10.51;74.04;94199.75;5034477;28;20516;-66
2022/12/10 05:11:33;;;;;;;11.13;7.23;;;;;;;10.60;74.13;94203.16;5041981;28;20232;-66
2022/12/10 05:13:59;;;;;;;9.37;7.03;;;;;;;10.65;73.59;94192.13;5048772;28;20213;-66
2022/12/10 05:16:27;;;;;;;12.20;7.93;;;;;;;10.71;73.50;94192.25;5059268;28;20236;-66
2022/12/10 05:18:54;;;;;;;9.83;7.23;;;;;;;10.71;73.76;94201.94;5057291;28;20217;-66
2022/12/10 05:21:21;;;;;;;11.53;7.17;;;;;;;10.77;73.36;94188.09;5046727;28;20347;-66
2022/12/10 05:23:50;;;;;;;13.30;7.00;;;;;;;10.71;73.99;94173.84;5048092;28;20182;-66
2022/12/10 05:26:24;;;;;;;12.83;8.07;;;;;;;10.64;74.01;94162.41;5018362;28;20257;-66
2022/12/10 05:28:55;;;;;;;12.97;8.10;;;;;;;10.61;74.54;94162.72;5026110;28;20305;-67
2022/12/10 05:31:23;;;;;;;12.10;7.83;;;;;;;10.66;74.42;94170.91;5026206;28;20218;-66
2022/12/10 05:33:49;;;;;;;13.43;8.10;;;;;;;10.69;74.34;94177.63;5022312;28;20226;-66
2022/12/10 05:36:18;;;;;;;14.20;8.70;;;;;;;10.55;74.46;94193.13;5020613;28;20194;-66
2022/12/10 05:38:43;;;;;;;9.33;7.23;;;;;;;10.46;74.32;94194.19;5021754;28;20182;-66
2022/12/10 05:41:13;;;;;;;11.77;8.37;;;;;;;10.56;73.87;94180.84;5035544;28;20218;-66
2022/12/10 05:43:39;;;;;;;11.53;8.00;;;;;;;10.59;74.12;94188.38;5023372;28;20221;-66
2022/12/10 05:46:09;;;;;;;15.73;8.57;;;;;;;10.63;74.43;94189.66;5024535;28;20586;-66
2022/12/10 05:48:35;;;;;;;13.53;8.57;;;;;;;10.54;74.47;94202.03;5020901;28;20226;-66
2022/12/10 05:51:08;;;;;;;12.10;8.23;;;;;;;10.51;74.55;94201.56;5020076;28;20189;-66
2022/12/10 05:53:34;;;;;;;12.30;8.43;;;;;;;10.65;74.21;94205.28;5036607;28;20189;-66
2022/12/10 05:56:12;;;;;;;11.77;8.50;;;;;;;10.70;74.19;94198.50;5037565;28;20223;-66
2022/12/10 05:58:42;;;;;;;13.17;8.63;;;;;;;10.74;73.98;94197.16;5037834;28;20225;-66
2022/12/10 06:01:15;;;;;;;15.97;8.43;;;;;;;10.80;74.14;94200.94;5048978;28;20223;-66
2022/12/10 06:03:41;;;;;;;13.77;10.53;;;;;;;10.73;74.21;94197.34;5057216;28;20235;-65
2022/12/10 06:06:07;;;;;;;12.97;8.50;;;;;;;10.66;74.90;94209.53;5044052;28;20233;-64
2022/12/10 06:08:34;;;;;;;12.70;8.73;;;;;;;10.36;75.75;94210.13;5046640;28;20201;-65
2022/12/10 06:11:10;;;;;;;14.63;9.33;;;;;;;10.26;76.00;94211.28;5043951;28;20217;-64
2022/12/10 06:13:37;;;;;;;14.30;8.80;;;;;;;10.46;75.65;94209.94;5039923;28;20221;-65
2022/12/10 06:16:07;;;;;;;11.27;8.43;;;;;;;10.62;74.78;94216.94;5050490;28;20252;-65
2022/12/10 06:18:32;;;;;;;14.73;9.03;;;;;;;10.69;74.47;94215.28;5026595;28;20275;-64
2022/12/10 06:20:58;;;;;;;16.87;10.73;;;;;;;10.49;74.85;94209.59;5043632;28;20181;-65
2022/12/10 06:23:23;;;;;;;13.60;8.53;;;;;;;10.60;74.55;94205.78;5056194;28;20241;-66
2022/12/10 06:25:49;;;;;;;10.97;8.17;;;;;;;10.69;74.10;94203.91;5054789;28;20226;-66
2022/12/10 06:28:14;;;;;;;14.37;9.37;;;;;;;10.69;74.17;94198.66;5044273;28;20221;-65
2022/12/10 06:30:39;;;;;;;9.67;7.50;;;;;;;10.37;76.01;94206.53;5038028;28;20217;-66
2022/12/10 06:33:05;;;;;;;12.63;7.87;;;;;;;10.32;76.57;94198.34;5043216;28;20177;-66
2022/12/10 06:35:31;;;;;;;11.13;8.10;;;;;;;10.50;75.94;94174.44;5048909;28;20193;-66
2022/12/10 06:37:56;;;;;;;12.93;8.33;;;;;;;10.62;75.72;94176.69;5053737;28;20217;-66
2022/12/10 06:40:22;;;;;;;16.40;8.83;;;;;;;10.74;75.33;94181.38;5033012;28;20214;-66
2022/12/10 06:42:47;;;;;;;13.07;8.17;;;;;;;10.63;76.04;94192.28;5040088;28;20244;-66
2022/12/10 06:45:18;;;;;;;17.87;8.67;;;;;;;10.53;76.65;94184.63;5044329;28;20192;-67
2022/12/10 06:47:43;;;;;;;16.10;9.93;;;;;;;10.30;78.15;94195.06;5057479;28;20226;-66
2022/12/10 06:50:09;;;;;;;14.97;9.70;;;;;;;10.25;79.08;94186.84;5046653;28;20283;-66
2022/12/10 06:52:34;;;;;;;15.93;9.50;;;;;;;10.34;78.77;94196.38;5035026;28;20217;-66
2022/12/10 06:55:00;;;;;;;14.17;9.37;;;;;;;10.31;79.19;94209.00;5037314;28;20230;-66
2022/12/10 06:57:25;;;;;;;15.63;9.83;;;;;;;10.56;78.37;94215.00;5040697;28;20221;-66
2022/12/10 06:59:51;;;;;;;15.67;10.17;;;;;;;10.72;77.30;94227.22;5040317;28;20209;-64
2022/12/10 07:02:17;;;;;;;13.67;9.77;;;;;;;10.88;76.67;94223.69;5036462;28;20231;-64
2022/12/10 07:04:43;;;;;;;14.17;10.07;;;;;;;11.01;75.74;94203.75;5039177;28;20225;-65
2022/12/10 07:07:08;;;;;;;13.83;9.80;;;;;;;11.06;75.29;94205.84;5041968;28;20218;-66
2022/12/10 07:09:38;;;;;;;14.73;10.67;;;;;;;11.09;74.89;94210.75;5037029;28;20228;-65
2022/12/10 07:12:04;;;;;;;13.17;10.27;;;;;;;11.02;75.77;94223.78;5036477;28;20242;-64
2022/12/10 07:14:29;;;;;;;13.00;10.33;;;;;;;10.92;75.76;94219.75;5036222;28;20198;-64
2022/12/10 07:16:55;;;;;;;20.27;12.53;;;;;;;11.10;75.55;94219.50;5040726;28;20228;-64
2022/12/10 07:19:20;;;;;;;14.33;10.20;;;;;;;11.16;75.36;94218.78;5047048;28;20300;-63
2022/12/10 07:21:46;;;;;;;15.57;10.07;;;;;;;11.18;74.85;94193.13;5042744;28;20306;-63
2022/12/10 07:24:15;;;;;;;17.50;10.63;;;;;;;11.13;75.31;94192.81;5038746;28;20193;-63
2022/12/10 07:26:42;;;;;;;15.93;10.57;;;;;;;11.21;75.22;94198.84;5046162;28;20189;-63
2022/12/10 07:29:13;;;;;;;12.43;10.73;;;;;;;11.33;74.83;94186.06;5032549;28;20218;-63
2022/12/10 07:31:38;;;;;;;15.10;10.40;;;;;;;11.25;74.90;94188.78;5037739;28;20284;-64
2022/12/10 07:34:04;;;;;;;15.53;11.27;;;;;;;11.27;75.05;94186.78;5030445;28;20218;-64
2022/12/10 07:36:29;;;;;;;16.47;11.80;;;;;;;11.22;75.16;94178.59;5042975;28;20271;-63
2022/12/10 07:38:56;;;;;;;16.83;11.50;;;;;;;11.27;74.92;94179.72;5037904;28;20182;-65
2022/12/10 07:41:23;;;;;;;14.23;11.30;;;;;;;11.32;74.70;94181.00;5054416;28;20296;-65
2022/12/10 07:43:48;;;;;;;19.63;11.33;;;;;;;11.43;74.44;94189.28;5044132;28;20221;-65
2022/12/10 07:46:15;;;;;;;18.20;12.57;;;;;;;11.25;74.43;94199.28;5044514;28;20236;-64
2022/12/10 07:48:44;;;;;;;12.90;11.60;;;;;;;11.13;75.33;94193.63;5044979;28;20228;-64
2022/12/10 07:51:10;;;;;;;18.33;12.00;;;;;;;11.35;74.83;94196.44;5040172;28;20194;-64
2022/12/10 07:53:35;;;;;;;14.77;12.20;;;;;;;11.06;75.49;94200.56;5048043;28;20227;-64
2022/12/10 07:56:01;;;;;;;12.13;10.23;;;;;;;10.77;76.86;94191.56;5029319;28;20210;-64
2022/12/10 07:58:27;;;;;;;13.07;10.43;;;;;;;10.83;76.40;94174.28;5030703;28;20277;-64
2022/12/10 08:00:52;;;;;;;16.23;10.77;;;;;;;11.01;75.96;94171.34;5030961;28;20218;-62
2022/12/10 08:03:18;;;;;;;16.30;11.07;;;;;;;11.00;75.61;94165.28;5024271;28;20229;-62
2022/12/10 08:05:43;;;;;;;16.17;11.07;;;;;;;11.02;76.13;94158.03;5028485;28;20186;-62
2022/12/10 08:08:09;;;;;;;17.03;11.10;;;;;;;11.32;75.38;94167.84;5036985;28;20229;-62
2022/12/10 08:10:35;;;;;;;13.80;10.70;;;;;;;11.45;74.98;94163.59;5029976;28;20225;-63
2022/12/10 08:13:01;;;;;;;14.53;10.77;;;;;;;11.62;74.47;94159.00;5030523;28;20238;-62
2022/12/10 08:15:28;;;;;;;12.27;10.10;;;;;;;11.73;73.37;94147.22;5042318;28;20234;-62
2022/12/10 08:17:54;;;;;;;13.23;10.33;;;;;;;11.83;72.90;94160.94;5024851;28;20175;-62
2022/12/10 08:20:20;;;;;;;12.70;10.13;;;;;;;11.61;73.53;94164.47;5055803;28;20243;-63
2022/12/10 08:22:45;;;;;;;17.53;10.83;;;;;;;11.69;73.35;94153.84;5024429;28;20214;-63
2022/12/10 08:25:11;;;;;;;16.27;11.47;;;;;;;11.81;73.56;94149.75;5048592;28;20222;-62
2022/12/10 08:27:37;;;;;;;16.40;10.60;;;;;;;11.87;72.89;94154.38;5042194;28;20241;-63
2022/12/10 08:30:03;;;;;;;14.47;10.83;;;;;;;11.71;73.46;94151.88;5038238;28;20206;-64
2022/12/10 08:32:28;;;;;;;16.93;10.13;;;;;;;11.88;73.21;94152.53;5046592;28;20250;-66
2022/12/10 08:34:53;;;;;;;17.00;11.23;;;;;;;12.02;72.60;94150.91;5041884;28;20253;-65
2022/12/10 08:37:19;;;;;;;12.77;11.30;;;;;;;12.03;72.96;94153.38;5045354;28;20228;-64
2022/12/10 08:39:44;;;;;;;18.33;11.40;;;;;;;11.98;73.23;94147.00;5037136;28;20260;-65
2022/12/10 08:42:10;;;;;;;13.70;10.67;;;;;;;12.07;72.23;94140.63;5045135;28;20182;-65
2022/12/10 08:44:35;;;;;;;14.33;11.30;;;;;;;12.05;71.83;94132.09;5043216;28;20198;-65
2022/12/10 08:47:02;;;;;;;14.50;10.40;;;;;;;12.11;72.18;94124.28;5046603;28;20225;-66
2022/12/10 08:49:27;;;;;;;17.27;11.77;;;;;;;12.20;72.10;94113.66;5039382;28;20230;-65
2022/12/10 08:51:53;;;;;;;16.23;11.17;;;;;;;12.26;72.27;94123.44;5043894;28;20229;-65
2022/12/10 08:54:18;;;;;;;14.70;12.60;;;;;;;12.02;72.65;94121.94;5037038;28;20231;-65
2022/12/10 08:56:43;;;;;;;15.73;12.47;;;;;;;12.02;72.87;94112.19;5025461;28;20182;-64
2022/12/10 08:59:10;;;;;;;15.07;12.13;;;;;;;12.12;73.02;94117.19;5038646;28;20217;-64
2022/12/10 09:01:35;;;;;;;14.87;12.47;;;;;;;11.97;73.46;94113.75;5044962;28;20249;-65
2022/12/10 09:04:01;;;;;;;16.50;12.33;;;;;;;12.12;73.06;94117.19;5030564;28;20218;-64
2022/12/10 09:06:28;;;;;;;16.33;12.80;;;;;;;12.29;72.95;94129.16;5021715;28;20284;-65
2022/12/10 09:08:54;;;;;;;17.37;13.20;;;;;;;12.35;72.64;94117.09;5025812;28;20234;-65
2022/12/10 09:11:25;;;;;;;19.40;14.33;;;;;;;12.38;72.35;94100.09;5019075;28;20239;-65
2022/12/10 09:13:51;;;;;;;19.77;13.27;;;;;;;12.43;71.69;94092.41;5023092;28;20214;-65
2022/12/10 09:16:17;;;;;;;15.90;13.47;;;;;;;12.50;71.81;94091.50;5036201;28;20232;-65
2022/12/10 09:18:42;;;;;;;17.07;13.40;;;;;;;12.34;72.05;94095.16;5036652;28;20215;-65
2022/12/10 09:21:12;;;;;;;19.27;13.73;;;;;;;12.20;73.61;94100.47;5040812;28;20191;-65
2022/12/10 09:23:38;;;;;;;19.23;14.57;;;;;;;12.30;73.17;94106.28;5029153;28;20620;-65
2022/12/10 09:26:13;;;;;;;16.60;14.83;;;;;;;12.44;72.08;94110.69;5033857;28;20237;-66
2022/12/10 09:28:39;;;;;;;21.93;15.40;;;;;;;12.45;72.33;94112.31;5019930;28;20312;-66
2022/12/10 09:31:07;;;;;;;22.27;18.30;;;;;;;12.29;73.08;94108.06;5019948;28;20226;-65
2022/12/10 09:33:34;;;;;;;21.20;16.87;;;;;;;12.43;72.60;94092.41;5021824;28;20213;-66
2022/12/10 09:36:01;;;;;;;21.00;15.57;;;;;;;12.37;73.20;94086.06;5029378;28;20248;-65
2022/12/10 09:38:27;;;;;;;19.07;15.23;;;;;;;12.50;72.77;94075.66;5052512;28;20182;-65
2022/12/10 09:41:04;;;;;;;21.13;14.97;;;;;;;12.41;72.47;94078.63;5037638;28;20218;-65
2022/12/10 09:43:52;;;;;;;22.67;15.23;;;;;;;12.24;73.87;94068.31;5038990;28;20298;-65
2022/12/10 09:46:36;;;;;;;20.20;14.77;;;;;;;12.54;73.13;94065.59;5031181;28;20226;-65
2022/12/10 09:49:26;;;;;;;17.63;14.30;;;;;;;12.62;71.97;94049.63;5016876;28;20315;-65
2022/12/10 09:51:57;;;;;;;16.33;13.33;;;;;;;12.61;72.54;94055.91;5013603;28;20253;-65
2022/12/10 09:54:27;;;;;;;19.30;14.40;;;;;;;12.28;73.47;94052.91;5022712;28;20424;-65
2022/12/10 09:56:54;;;;;;;15.90;13.03;;;;;;;12.43;73.62;94045.81;5022084;28;20182;-65
2022/12/10 09:59:23;;;;;;;19.27;12.70;;;;;;;12.39;73.81;94049.00;5023730;28;20222;-65
2022/12/10 10:02:03;;;;;;;15.60;13.20;;;;;;;12.66;72.48;94052.72;5025547;28;20277;-65
2022/12/10 10:04:28;;;;;;;14.83;12.73;;;;;;;12.93;71.84;94056.41;5021101;28;20218;-64
2022/12/10 10:06:55;;;;;;;14.80;12.47;;;;;;;13.20;71.28;94045.09;5024578;28;20228;-64
2022/12/10 10:09:21;;;;;;;19.00;13.17;;;;;;;13.44;70.67;94035.09;5055867;28;20233;-64
2022/12/10 10:11:47;;;;;;;16.73;12.60;;;;;;;13.56;70.18;94032.75;5038705;28;20237;-66
2022/12/10 10:14:20;;;;;;;17.37;13.50;;;;;;;13.67;69.56;94030.38;5018648;28;20218;-66
2022/12/10 10:16:54;;;;;;;13.90;12.37;;;;;;;13.51;69.63;94038.59;5027345;28;20362;-66
2022/12/10 10:19:32;;;;;;;15.47;12.33;;;;;;;13.45;69.15;94047.31;5021992;28;20216;-66
2022/12/10 10:21:58;;;;;;;14.50;12.87;;;;;;;13.36;69.24;94041.34;5051475;28;20304;-64
2022/12/10 10:24:35;;;;;;;18.07;12.53;;;;;;;13.47;68.87;94034.72;5038736;28;20226;-66
2022/12/10 10:27:15;;;;;;;13.30;11.90;;;;;;;13.49;69.22;94037.97;5017894;28;20282;-66
2022/12/10 10:29:42;;;;;;;16.87;12.43;;;;;;;13.45;69.66;94034.13;5023786;28;20205;-66
2022/12/10 10:32:13;;;;;;;19.60;14.57;;;;;;;13.66;69.03;94018.19;5032165;28;20217;-64
2022/12/10 10:34:40;;;;;;;18.63;14.90;;;;;;;13.36;69.86;94003.56;5027661;28;20249;-64
2022/12/10 10:37:05;;;;;;;18.13;14.37;;;;;;;13.67;69.37;93998.66;5023818;28;20318;-65
2022/12/10 10:39:35;;;;;;;17.10;14.10;;;;;;;13.87;68.55;94000.59;5028480;28;20288;-64
2022/12/10 10:42:09;;;;;;;18.07;14.10;;;;;;;14.00;67.85;93995.34;5042011;28;20186;-64
2022/12/10 10:44:37;;;;;;;15.73;14.13;;;;;;;14.04;67.59;93987.88;5044049;28;20184;-64
2022/12/10 10:47:27;;;;;;;15.13;13.43;;;;;;;14.13;67.13;94000.69;5038761;28;20232;-66
2022/12/10 10:49:53;;;;;;;18.13;14.37;;;;;;;13.85;68.06;93994.72;5035668;28;20226;-64
2022/12/10 10:52:18;;;;;;;17.87;14.30;;;;;;;13.89;67.16;93988.81;5042233;28;20272;-65
2022/12/10 10:54:45;;;;;;;17.30;12.60;;;;;;;14.05;66.95;93981.56;5035932;28;20721;-64
2022/12/10 10:57:18;;;;;;;17.95;13.43;;;;;;;14.19;67.09;93993.78;5043954;28;20272;-64
2022/12/10 10:59:45;;;;;;;16.73;13.90;;;;;;;13.94;67.33;93985.59;5044121;28;20246;-64
2022/12/10 11:02:23;;;;;;;21.55;14.10;;;;;;;13.82;67.43;93992.44;5050553;28;20214;-64
2022/12/10 11:04:54;;;;;;;16.17;13.50;;;;;;;13.79;67.70;93963.75;5049720;28;20225;-64
2022/12/10 11:07:33;;;;;;;17.83;13.70;;;;;;;13.94;68.11;93959.16;5037552;28;20226;-64
2022/12/10 11:09:59;;;;;;;17.40;13.10;;;;;;;14.05;68.01;93961.22;5030638;28;20238;-64
2022/12/10 11:12:36;;;;;;;15.80;13.50;;;;;;;14.24;67.39;93953.53;5039028;28;20265;-65
2022/12/10 11:15:22;;;;;;;14.88;13.32;;;;;;;14.30;67.47;93952.72;5048907;28;20189;-64
2022/12/10 11:17:50;;;;;;;14.55;12.95;;;;;;;14.43;66.57;93947.47;5040916;28;20178;-64
2022/12/10 11:20:21;;;;;;;19.20;12.17;;;;;;;14.52;66.30;93925.16;5039504;28;20249;-65
2022/12/10 11:22:58;;;;;;;12.90;10.75;;;;;;;14.70;65.99;93918.41;5049981;28;20225;-65
2022/12/10 11:25:32;;;;;;;13.15;11.00;;;;;;;14.82;66.12;93916.81;5045891;28;20230;-66
2022/12/10 11:28:06;;;;;;;14.85;11.52;;;;;;;14.86;66.23;93893.38;5038169;28;20260;-66
2022/12/10 11:30:43;;;;;;;13.45;11.70;;;;;;;14.94;65.90;93907.22;5038746;28;20225;-66
2022/12/10 11:33:25;;;;;;;13.13;10.57;;;;;;;15.05;65.83;93907.59;5052233;28;20249;-65
2022/12/10 11:36:07;;;;;;;15.00;11.05;;;;;;;15.09;65.18;93906.19;5046229;28;20276;-66
2022/12/10 11:38:51;;;;;;;11.75;9.98;;;;;;;15.10;65.31;93913.09;5045000;28;20218;-65